sensor_id;sensor_type;location;lat;lon;timestamp;P1;durP1;ratioP1;P2;durP2;ratioP2
25609;SDS011;13479;49.044;8.716;2022-09-09T04:16:52;3.75;;;0.77;;
25609;SDS011;13479;49.044;8.716;2022-09-09T04:19:17;2.80;;;0.70;;
25609;SDS011;13479;49.044;8.716;2022-09-09T04:21:42;2.63;;;0.55;;
25609;SDS011;13479;49.044;8.716;2022-09-09T04:24:08;2.67;;;0.75;;
25609;SDS011;13479;49.044;8.716;2022-09-09T04:26:34;1.70;;;0.50;;
25609;SDS011;13479;49.044;8.716;2022-09-09T04:29:01;2.33;;;0.50;;
25609;SDS011;13479;49.044;8.716;2022-09-09T04:31:27;2.53;;;0.63;;
25609;SDS011;13479;49.044;8.716;2022-09-09T04:33:53;1.38;;;0.50;;
25609;SDS011;13479;49.044;8.716;2022-09-09T04:36:18;2.25;;;0.68;;
25609;SDS011;13479;49.044;8.716;2022-09-09T04:38:45;2.47;;;0.70;;
25609;SDS011;13479;49.044;8.716;2022-09-09T04:41:11;4.10;;;0.60;;
25609;SDS011;13479;49.044;8.716;2022-09-09T04:43:37;3.40;;;0.60;;
25609;SDS011;13479;49.044;8.716;2022-09-09T04:46:03;2.22;;;0.47;;
25609;SDS011;13479;49.044;8.716;2022-09-09T04:48:28;2.97;;;0.50;;
25609;SDS011;13479;49.044;8.716;2022-09-09T04:50:54;2.85;;;0.85;;
25609;SDS011;13479;49.044;8.716;2022-09-09T04:53:24;1.83;;;0.50;;
25609;SDS011;13479;49.044;8.716;2022-09-09T04:55:50;2.08;;;0.70;;
25609;SDS011;13479;49.044;8.716;2022-09-09T04:58:16;1.60;;;0.52;;
25609;SDS011;13479;49.044;8.716;2022-09-09T05:00:42;2.67;;;0.68;;
25609;SDS011;13479;49.044;8.716;2022-09-09T05:03:07;2.15;;;0.60;;
25609;SDS011;13479;49.044;8.716;2022-09-09T05:05:34;1.83;;;0.60;;
25609;SDS011;13479;49.044;8.716;2022-09-09T05:08:03;4.57;;;0.80;;
25609;SDS011;13479;49.044;8.716;2022-09-09T05:10:31;1.52;;;0.60;;
25609;SDS011;13479;49.044;8.716;2022-09-09T05:12:56;2.28;;;0.60;;
25609;SDS011;13479;49.044;8.716;2022-09-09T05:15:22;3.90;;;0.60;;
25609;SDS011;13479;49.044;8.716;2022-09-09T05:17:48;2.28;;;0.57;;
25609;SDS011;13479;49.044;8.716;2022-09-09T05:20:13;1.42;;;0.50;;
25609;SDS011;13479;49.044;8.716;2022-09-09T05:22:38;1.92;;;0.70;;
25609;SDS011;13479;49.044;8.716;2022-09-09T05:25:04;1.23;;;0.40;;
25609;SDS011;13479;49.044;8.716;2022-09-09T05:27:29;3.08;;;0.50;;
25609;SDS011;13479;49.044;8.716;2022-09-09T05:29:56;2.08;;;0.52;;
25609;SDS011;13479;49.044;8.716;2022-09-09T05:32:22;1.50;;;0.45;;
25609;SDS011;13479;49.044;8.716;2022-09-09T05:34:47;3.88;;;0.60;;
25609;SDS011;13479;49.044;8.716;2022-09-09T05:37:13;3.13;;;0.85;;
25609;SDS011;13479;49.044;8.716;2022-09-09T05:39:38;1.92;;;0.60;;
25609;SDS011;13479;49.044;8.716;2022-09-09T05:42:03;3.20;;;0.60;;
25609;SDS011;13479;49.044;8.716;2022-09-09T05:44:29;2.03;;;0.63;;
25609;SDS011;13479;49.044;8.716;2022-09-09T05:46:54;1.83;;;0.63;;
25609;SDS011;13479;49.044;8.716;2022-09-09T05:49:20;3.80;;;0.70;;
25609;SDS011;13479;49.044;8.716;2022-09-09T05:51:46;3.45;;;0.80;;
25609;SDS011;13479;49.044;8.716;2022-09-09T05:54:12;3.95;;;0.70;;
25609;SDS011;13479;49.044;8.716;2022-09-09T05:56:40;1.42;;;0.60;;
25609;SDS011;13479;49.044;8.716;2022-09-09T05:59:05;5.40;;;0.70;;
25609;SDS011;13479;49.044;8.716;2022-09-09T06:01:32;3.35;;;0.57;;
25609;SDS011;13479;49.044;8.716;2022-09-09T06:03:59;2.83;;;0.70;;
25609;SDS011;13479;49.044;8.716;2022-09-09T06:06:25;2.00;;;0.70;;
25609;SDS011;13479;49.044;8.716;2022-09-09T06:08:53;5.88;;;0.70;;
25609;SDS011;13479;49.044;8.716;2022-09-09T06:11:28;3.50;;;0.70;;
25609;SDS011;13479;49.044;8.716;2022-09-09T06:13:57;3.20;;;0.95;;
25609;SDS011;13479;49.044;8.716;2022-09-09T06:16:23;2.42;;;0.70;;
25609;SDS011;13479;49.044;8.716;2022-09-09T06:18:51;3.88;;;1.00;;
25609;SDS011;13479;49.044;8.716;2022-09-09T06:21:19;3.40;;;1.27;;
25609;SDS011;13479;49.044;8.716;2022-09-09T06:23:49;3.38;;;1.23;;
25609;SDS011;13479;49.044;8.716;2022-09-09T06:26:26;4.47;;;1.48;;
25609;SDS011;13479;49.044;8.716;2022-09-09T06:28:53;3.95;;;1.40;;
25609;SDS011;13479;49.044;8.716;2022-09-09T06:31:21;3.45;;;1.10;;
25609;SDS011;13479;49.044;8.716;2022-09-09T06:33:48;3.83;;;0.80;;
25609;SDS011;13479;49.044;8.716;2022-09-09T06:36:15;2.28;;;0.70;;
25609;SDS011;13479;49.044;8.716;2022-09-09T06:38:43;2.63;;;0.70;;
25609;SDS011;13479;49.044;8.716;2022-09-09T06:41:09;3.05;;;0.95;;
25609;SDS011;13479;49.044;8.716;2022-09-09T06:43:35;2.17;;;0.70;;
25609;SDS011;13479;49.044;8.716;2022-09-09T06:46:05;2.58;;;0.65;;
25609;SDS011;13479;49.044;8.716;2022-09-09T06:48:33;2.45;;;0.70;;
25609;SDS011;13479;49.044;8.716;2022-09-09T06:51:02;4.47;;;1.00;;
25609;SDS011;13479;49.044;8.716;2022-09-09T06:53:31;5.88;;;0.70;;
25609;SDS011;13479;49.044;8.716;2022-09-09T06:55:59;7.25;;;0.88;;
25609;SDS011;13479;49.044;8.716;2022-09-09T06:58:28;5.65;;;0.70;;
25609;SDS011;13479;49.044;8.716;2022-09-09T07:01:04;3.92;;;0.75;;
25609;SDS011;13479;49.044;8.716;2022-09-09T07:03:30;2.03;;;0.70;;
25609;SDS011;13479;49.044;8.716;2022-09-09T07:05:56;5.70;;;0.90;;
25609;SDS011;13479;49.044;8.716;2022-09-09T07:08:22;7.57;;;0.90;;
25609;SDS011;13479;49.044;8.716;2022-09-09T07:10:47;5.45;;;0.80;;
25609;SDS011;13479;49.044;8.716;2022-09-09T07:13:12;4.50;;;0.73;;
25609;SDS011;13479;49.044;8.716;2022-09-09T07:15:40;3.90;;;0.73;;
25609;SDS011;13479;49.044;8.716;2022-09-09T07:18:06;6.40;;;1.05;;
25609;SDS011;13479;49.044;8.716;2022-09-09T07:20:31;4.80;;;0.80;;
25609;SDS011;13479;49.044;8.716;2022-09-09T07:22:56;5.60;;;1.10;;
25609;SDS011;13479;49.044;8.716;2022-09-09T07:25:23;2.92;;;0.90;;
25609;SDS011;13479;49.044;8.716;2022-09-09T07:27:48;3.83;;;0.80;;
25609;SDS011;13479;49.044;8.716;2022-09-09T07:30:14;2.63;;;1.00;;
25609;SDS011;13479;49.044;8.716;2022-09-09T07:32:39;3.08;;;0.90;;
25609;SDS011;13479;49.044;8.716;2022-09-09T07:35:05;8.10;;;1.33;;
25609;SDS011;13479;49.044;8.716;2022-09-09T07:37:30;9.07;;;1.52;;
25609;SDS011;13479;49.044;8.716;2022-09-09T07:39:56;12.63;;;1.60;;
25609;SDS011;13479;49.044;8.716;2022-09-09T07:42:21;11.52;;;1.25;;
25609;SDS011;13479;49.044;8.716;2022-09-09T07:44:46;9.02;;;1.20;;
25609;SDS011;13479;49.044;8.716;2022-09-09T07:47:11;6.03;;;1.05;;
25609;SDS011;13479;49.044;8.716;2022-09-09T07:49:37;5.68;;;1.02;;
25609;SDS011;13479;49.044;8.716;2022-09-09T07:52:02;7.18;;;0.90;;
25609;SDS011;13479;49.044;8.716;2022-09-09T07:54:28;5.72;;;1.02;;
25609;SDS011;13479;49.044;8.716;2022-09-09T07:56:53;3.97;;;0.98;;
25609;SDS011;13479;49.044;8.716;2022-09-09T07:59:19;6.85;;;1.00;;
25609;SDS011;13479;49.044;8.716;2022-09-09T08:01:45;4.78;;;1.10;;
25609;SDS011;13479;49.044;8.716;2022-09-09T08:04:14;3.97;;;0.90;;
25609;SDS011;13479;49.044;8.716;2022-09-09T08:07:00;3.38;;;0.95;;
25609;SDS011;13479;49.044;8.716;2022-09-09T08:09:28;4.53;;;1.02;;
25609;SDS011;13479;49.044;8.716;2022-09-09T08:11:54;3.22;;;0.90;;
25609;SDS011;13479;49.044;8.716;2022-09-09T08:14:21;4.65;;;1.10;;
25609;SDS011;13479;49.044;8.716;2022-09-09T08:16:48;2.95;;;1.00;;
25609;SDS011;13479;49.044;8.716;2022-09-09T08:19:15;5.55;;;1.05;;
25609;SDS011;13479;49.044;8.716;2022-09-09T08:21:41;3.45;;;0.90;;
25609;SDS011;13479;49.044;8.716;2022-09-09T08:24:08;3.30;;;0.88;;
25609;SDS011;13479;49.044;8.716;2022-09-09T08:26:39;2.78;;;0.90;;
25609;SDS011;13479;49.044;8.716;2022-09-09T08:29:10;3.42;;;0.98;;
25609;SDS011;13479;49.044;8.716;2022-09-09T08:31:37;2.13;;;0.63;;
25609;SDS011;13479;49.044;8.716;2022-09-09T08:34:04;3.00;;;0.90;;
25609;SDS011;13479;49.044;8.716;2022-09-09T08:36:31;4.07;;;0.90;;
25609;SDS011;13479;49.044;8.716;2022-09-09T08:39:06;4.93;;;1.05;;
25609;SDS011;13479;49.044;8.716;2022-09-09T08:52:56;6.05;;;0.90;;
25609;SDS011;13479;49.044;8.716;2022-09-09T08:58:14;3.40;;;0.90;;
25609;SDS011;13479;49.044;8.716;2022-09-09T09:12:13;4.18;;;0.77;;
25609;SDS011;13479;49.044;8.716;2022-09-09T09:14:43;3.03;;;0.90;;
25609;SDS011;13479;49.044;8.716;2022-09-09T09:17:12;3.08;;;0.80;;
25609;SDS011;13479;49.044;8.716;2022-09-09T09:19:40;3.38;;;0.88;;
25609;SDS011;13479;49.044;8.716;2022-09-09T09:22:18;2.20;;;0.77;;
25609;SDS011;13479;49.044;8.716;2022-09-09T09:24:55;4.68;;;1.08;;
25609;SDS011;13479;49.044;8.716;2022-09-09T09:27:36;3.45;;;0.93;;
25609;SDS011;13479;49.044;8.716;2022-09-09T09:32:43;3.47;;;1.00;;
25609;SDS011;13479;49.044;8.716;2022-09-09T09:35:15;2.92;;;0.90;;
25609;SDS011;13479;49.044;8.716;2022-09-09T09:37:41;2.92;;;0.93;;
25609;SDS011;13479;49.044;8.716;2022-09-09T09:40:12;4.93;;;1.00;;
25609;SDS011;13479;49.044;8.716;2022-09-09T09:42:50;3.72;;;1.00;;
25609;SDS011;13479;49.044;8.716;2022-09-09T09:45:33;4.13;;;0.80;;
25609;SDS011;13479;49.044;8.716;2022-09-09T09:48:10;4.13;;;0.85;;
25609;SDS011;13479;49.044;8.716;2022-09-09T09:50:46;4.90;;;0.80;;
25609;SDS011;13479;49.044;8.716;2022-09-09T09:53:25;2.85;;;0.77;;
25609;SDS011;13479;49.044;8.716;2022-09-09T09:55:55;4.38;;;1.00;;
25609;SDS011;13479;49.044;8.716;2022-09-09T09:58:22;4.00;;;0.70;;
25609;SDS011;13479;49.044;8.716;2022-09-09T10:00:51;3.20;;;0.80;;
25609;SDS011;13479;49.044;8.716;2022-09-09T10:03:21;2.60;;;0.80;;
25609;SDS011;13479;49.044;8.716;2022-09-09T10:05:51;2.58;;;0.80;;
25609;SDS011;13479;49.044;8.716;2022-09-09T10:08:17;2.65;;;0.85;;
25609;SDS011;13479;49.044;8.716;2022-09-09T10:19:30;4.93;;;1.00;;
25609;SDS011;13479;49.044;8.716;2022-09-09T10:30:06;5.13;;;1.00;;
25609;SDS011;13479;49.044;8.716;2022-09-09T10:35:18;3.75;;;1.10;;
25609;SDS011;13479;49.044;8.716;2022-09-09T10:40:32;3.92;;;0.80;;
25609;SDS011;13479;49.044;8.716;2022-09-09T10:43:09;4.70;;;0.98;;
25609;SDS011;13479;49.044;8.716;2022-09-09T10:57:37;2.40;;;0.75;;
25609;SDS011;13479;49.044;8.716;2022-09-09T11:00:15;4.03;;;0.95;;
25609;SDS011;13479;49.044;8.716;2022-09-09T11:02:47;3.35;;;0.75;;
25609;SDS011;13479;49.044;8.716;2022-09-09T11:05:19;3.95;;;0.93;;
25609;SDS011;13479;49.044;8.716;2022-09-09T11:07:48;4.65;;;0.93;;
25609;SDS011;13479;49.044;8.716;2022-09-09T11:12:59;4.10;;;0.82;;
25609;SDS011;13479;49.044;8.716;2022-09-09T11:15:35;3.50;;;0.77;;
25609;SDS011;13479;49.044;8.716;2022-09-09T11:18:10;4.15;;;0.90;;
25609;SDS011;13479;49.044;8.716;2022-09-09T11:20:40;3.70;;;0.75;;
25609;SDS011;13479;49.044;8.716;2022-09-09T11:23:13;2.70;;;0.60;;
25609;SDS011;13479;49.044;8.716;2022-09-09T11:25:45;3.80;;;0.85;;
25609;SDS011;13479;49.044;8.716;2022-09-09T11:31:16;3.83;;;0.77;;
25609;SDS011;13479;49.044;8.716;2022-09-09T11:39:33;3.28;;;0.80;;
25609;SDS011;13479;49.044;8.716;2022-09-09T11:44:38;2.70;;;0.60;;
25609;SDS011;13479;49.044;8.716;2022-09-09T11:47:15;4.82;;;0.98;;
25609;SDS011;13479;49.044;8.716;2022-09-09T11:49:49;5.75;;;0.77;;
25609;SDS011;13479;49.044;8.716;2022-09-09T11:52:25;2.15;;;0.47;;
25609;SDS011;13479;49.044;8.716;2022-09-09T11:55:08;1.85;;;0.70;;
25609;SDS011;13479;49.044;8.716;2022-09-09T11:57:56;4.38;;;0.60;;
25609;SDS011;13479;49.044;8.716;2022-09-09T12:00:31;3.38;;;0.55;;
25609;SDS011;13479;49.044;8.716;2022-09-09T12:03:00;2.35;;;0.60;;
25609;SDS011;13479;49.044;8.716;2022-09-09T12:05:35;4.55;;;0.70;;
25609;SDS011;13479;49.044;8.716;2022-09-09T12:08:04;3.17;;;0.63;;
25609;SDS011;13479;49.044;8.716;2022-09-09T12:10:34;1.45;;;0.50;;
25609;SDS011;13479;49.044;8.716;2022-09-09T12:13:19;3.83;;;0.60;;
25609;SDS011;13479;49.044;8.716;2022-09-09T12:15:57;3.65;;;0.68;;
25609;SDS011;13479;49.044;8.716;2022-09-09T12:18:33;3.65;;;0.57;;
25609;SDS011;13479;49.044;8.716;2022-09-09T12:31:46;3.03;;;0.73;;
25609;SDS011;13479;49.044;8.716;2022-09-09T12:39:57;4.70;;;0.82;;
25609;SDS011;13479;49.044;8.716;2022-09-09T12:42:24;4.32;;;0.85;;
25609;SDS011;13479;49.044;8.716;2022-09-09T12:44:57;4.32;;;0.85;;
25609;SDS011;13479;49.044;8.716;2022-09-09T12:50:18;3.78;;;0.70;;
25609;SDS011;13479;49.044;8.716;2022-09-09T12:52:47;4.00;;;0.70;;
25609;SDS011;13479;49.044;8.716;2022-09-09T12:55:16;3.72;;;0.73;;
25609;SDS011;13479;49.044;8.716;2022-09-09T12:57:46;2.63;;;0.75;;
25609;SDS011;13479;49.044;8.716;2022-09-09T13:02:55;3.65;;;0.70;;
25609;SDS011;13479;49.044;8.716;2022-09-09T13:05:25;4.53;;;1.00;;
25609;SDS011;13479;49.044;8.716;2022-09-09T13:08:02;2.72;;;0.65;;
25609;SDS011;13479;49.044;8.716;2022-09-09T13:10:29;5.30;;;0.85;;
25609;SDS011;13479;49.044;8.716;2022-09-09T13:12:59;5.30;;;0.93;;
25609;SDS011;13479;49.044;8.716;2022-09-09T13:15:26;3.40;;;0.73;;
25609;SDS011;13479;49.044;8.716;2022-09-09T13:17:55;3.30;;;0.80;;
25609;SDS011;13479;49.044;8.716;2022-09-09T13:20:22;4.60;;;0.85;;
25609;SDS011;13479;49.044;8.716;2022-09-09T13:22:50;1.17;;;0.50;;
25609;SDS011;13479;49.044;8.716;2022-09-09T13:27:51;1.17;;;0.30;;
25609;SDS011;13479;49.044;8.716;2022-09-09T13:35:45;2.33;;;0.50;;
25609;SDS011;13479;49.044;8.716;2022-09-09T13:38:14;2.00;;;0.50;;
25609;SDS011;13479;49.044;8.716;2022-09-09T13:40:40;2.35;;;0.50;;
25609;SDS011;13479;49.044;8.716;2022-09-09T13:43:20;1.38;;;0.52;;
25609;SDS011;13479;49.044;8.716;2022-09-09T13:45:54;5.90;;;0.52;;
25609;SDS011;13479;49.044;8.716;2022-09-09T13:48:21;2.17;;;0.50;;
25609;SDS011;13479;49.044;8.716;2022-09-09T13:50:57;3.25;;;0.65;;
25609;SDS011;13479;49.044;8.716;2022-09-09T13:53:24;6.47;;;0.90;;
25609;SDS011;13479;49.044;8.716;2022-09-09T13:55:49;6.60;;;0.80;;
25609;SDS011;13479;49.044;8.716;2022-09-09T13:58:16;4.47;;;0.68;;
25609;SDS011;13479;49.044;8.716;2022-09-09T14:00:43;2.42;;;0.82;;
25609;SDS011;13479;49.044;8.716;2022-09-09T14:03:09;3.25;;;0.80;;
25609;SDS011;13479;49.044;8.716;2022-09-09T14:05:35;2.78;;;0.55;;
25609;SDS011;13479;49.044;8.716;2022-09-09T14:08:00;2.22;;;0.60;;
25609;SDS011;13479;49.044;8.716;2022-09-09T14:10:29;1.40;;;0.60;;
25609;SDS011;13479;49.044;8.716;2022-09-09T14:12:54;1.77;;;0.60;;
25609;SDS011;13479;49.044;8.716;2022-09-09T14:15:20;3.38;;;0.68;;
25609;SDS011;13479;49.044;8.716;2022-09-09T14:17:46;2.42;;;0.50;;
25609;SDS011;13479;49.044;8.716;2022-09-09T14:20:13;3.75;;;0.70;;
25609;SDS011;13479;49.044;8.716;2022-09-09T14:22:40;2.03;;;0.73;;
25609;SDS011;13479;49.044;8.716;2022-09-09T14:25:06;2.17;;;0.60;;
25609;SDS011;13479;49.044;8.716;2022-09-09T14:27:32;2.00;;;0.52;;
25609;SDS011;13479;49.044;8.716;2022-09-09T14:29:57;1.52;;;0.60;;
25609;SDS011;13479;49.044;8.716;2022-09-09T14:32:24;3.45;;;0.55;;
25609;SDS011;13479;49.044;8.716;2022-09-09T14:34:50;4.50;;;0.70;;
25609;SDS011;13479;49.044;8.716;2022-09-09T14:37:16;3.03;;;0.65;;
25609;SDS011;13479;49.044;8.716;2022-09-09T14:39:42;2.72;;;0.70;;
25609;SDS011;13479;49.044;8.716;2022-09-09T14:42:09;3.30;;;0.65;;
25609;SDS011;13479;49.044;8.716;2022-09-09T14:44:36;7.03;;;1.10;;
25609;SDS011;13479;49.044;8.716;2022-09-09T14:47:03;2.92;;;0.65;;
25609;SDS011;13479;49.044;8.716;2022-09-09T14:49:28;2.75;;;0.75;;
25609;SDS011;13479;49.044;8.716;2022-09-09T14:51:53;2.30;;;0.75;;
25609;SDS011;13479;49.044;8.716;2022-09-09T14:54:19;2.53;;;0.60;;
25609;SDS011;13479;49.044;8.716;2022-09-09T14:56:46;1.88;;;0.60;;
25609;SDS011;13479;49.044;8.716;2022-09-09T14:59:12;3.97;;;0.63;;
25609;SDS011;13479;49.044;8.716;2022-09-09T15:01:38;4.03;;;0.68;;
25609;SDS011;13479;49.044;8.716;2022-09-09T15:04:03;4.55;;;0.80;;
25609;SDS011;13479;49.044;8.716;2022-09-09T15:06:30;4.75;;;0.82;;
25609;SDS011;13479;49.044;8.716;2022-09-09T15:08:58;3.03;;;0.65;;
25609;SDS011;13479;49.044;8.716;2022-09-09T15:11:28;7.72;;;0.90;;
25609;SDS011;13479;49.044;8.716;2022-09-09T15:13:55;7.35;;;1.00;;
25609;SDS011;13479;49.044;8.716;2022-09-09T15:16:25;3.83;;;0.70;;
25609;SDS011;13479;49.044;8.716;2022-09-09T15:18:54;4.50;;;0.80;;
25609;SDS011;13479;49.044;8.716;2022-09-09T15:21:21;4.15;;;0.77;;
25609;SDS011;13479;49.044;8.716;2022-09-09T15:23:48;3.60;;;0.80;;
25609;SDS011;13479;49.044;8.716;2022-09-09T15:26:14;3.97;;;0.63;;
25609;SDS011;13479;49.044;8.716;2022-09-09T15:28:41;5.82;;;0.70;;
25609;SDS011;13479;49.044;8.716;2022-09-09T15:31:09;7.03;;;0.70;;
25609;SDS011;13479;49.044;8.716;2022-09-09T15:33:36;3.03;;;0.60;;
25609;SDS011;13479;49.044;8.716;2022-09-09T15:36:21;4.45;;;0.60;;
25609;SDS011;13479;49.044;8.716;2022-09-09T15:38:48;2.22;;;0.80;;
25609;SDS011;13479;49.044;8.716;2022-09-09T15:41:14;2.28;;;0.70;;
25609;SDS011;13479;49.044;8.716;2022-09-09T15:43:44;3.33;;;0.63;;
25609;SDS011;13479;49.044;8.716;2022-09-09T15:48:49;2.90;;;0.90;;
25609;SDS011;13479;49.044;8.716;2022-09-09T15:51:15;2.38;;;0.77;;
25609;SDS011;13479;49.044;8.716;2022-09-09T15:53:41;3.90;;;0.68;;
25609;SDS011;13479;49.044;8.716;2022-09-09T15:56:06;2.47;;;0.57;;
25609;SDS011;13479;49.044;8.716;2022-09-09T15:58:33;4.60;;;0.90;;
25609;SDS011;13479;49.044;8.716;2022-09-09T16:01:03;1.65;;;0.60;;
25609;SDS011;13479;49.044;8.716;2022-09-09T16:03:29;2.08;;;0.77;;
25609;SDS011;13479;49.044;8.716;2022-09-09T16:05:58;2.33;;;0.60;;
25609;SDS011;13479;49.044;8.716;2022-09-09T16:08:23;1.88;;;0.50;;
25609;SDS011;13479;49.044;8.716;2022-09-09T16:10:49;2.83;;;0.70;;
25609;SDS011;13479;49.044;8.716;2022-09-09T16:13:14;3.00;;;0.50;;
25609;SDS011;13479;49.044;8.716;2022-09-09T16:15:39;2.10;;;0.50;;
25609;SDS011;13479;49.044;8.716;2022-09-09T16:18:04;6.05;;;0.75;;
25609;SDS011;13479;49.044;8.716;2022-09-09T16:20:30;1.80;;;0.60;;
25609;SDS011;13479;49.044;8.716;2022-09-09T16:22:55;2.45;;;0.70;;
25609;SDS011;13479;49.044;8.716;2022-09-09T16:25:22;0.82;;;0.40;;
25609;SDS011;13479;49.044;8.716;2022-09-09T16:27:47;3.28;;;0.70;;
25609;SDS011;13479;49.044;8.716;2022-09-09T16:30:12;3.25;;;0.70;;
25609;SDS011;13479;49.044;8.716;2022-09-09T16:32:38;1.13;;;0.45;;
25609;SDS011;13479;49.044;8.716;2022-09-09T16:35:03;2.65;;;0.60;;
25609;SDS011;13479;49.044;8.716;2022-09-09T16:37:29;1.40;;;0.43;;
25609;SDS011;13479;49.044;8.716;2022-09-09T16:39:54;1.98;;;0.40;;
25609;SDS011;13479;49.044;8.716;2022-09-09T16:42:20;1.75;;;0.70;;
25609;SDS011;13479;49.044;8.716;2022-09-09T16:44:45;1.85;;;0.40;;
25609;SDS011;13479;49.044;8.716;2022-09-09T16:47:10;2.00;;;0.40;;
25609;SDS011;13479;49.044;8.716;2022-09-09T16:49:35;1.77;;;0.50;;
25609;SDS011;13479;49.044;8.716;2022-09-09T16:52:01;0.85;;;0.30;;
25609;SDS011;13479;49.044;8.716;2022-09-09T16:54:26;2.38;;;0.40;;
25609;SDS011;13479;49.044;8.716;2022-09-09T16:56:52;2.20;;;0.60;;
25609;SDS011;13479;49.044;8.716;2022-09-09T16:59:18;0.55;;;0.20;;
25609;SDS011;13479;49.044;8.716;2022-09-09T17:01:45;1.85;;;0.40;;
25609;SDS011;13479;49.044;8.716;2022-09-09T17:04:15;1.23;;;0.52;;
25609;SDS011;13479;49.044;8.716;2022-09-09T17:06:46;0.95;;;0.32;;
25609;SDS011;13479;49.044;8.716;2022-09-09T17:09:14;2.25;;;0.47;;
25609;SDS011;13479;49.044;8.716;2022-09-09T17:11:39;1.60;;;0.50;;
25609;SDS011;13479;49.044;8.716;2022-09-09T17:14:05;2.08;;;0.43;;
25609;SDS011;13479;49.044;8.716;2022-09-09T17:16:33;4.03;;;0.60;;
25609;SDS011;13479;49.044;8.716;2022-09-09T17:18:59;2.35;;;0.43;;
25609;SDS011;13479;49.044;8.716;2022-09-09T17:21:26;0.75;;;0.32;;
25609;SDS011;13479;49.044;8.716;2022-09-09T17:23:52;2.28;;;0.70;;
25609;SDS011;13479;49.044;8.716;2022-09-09T17:26:19;2.40;;;0.50;;
25609;SDS011;13479;49.044;8.716;2022-09-09T17:28:46;1.25;;;0.40;;
25609;SDS011;13479;49.044;8.716;2022-09-09T17:31:12;2.92;;;0.50;;
25609;SDS011;13479;49.044;8.716;2022-09-09T17:33:40;1.67;;;0.43;;
25609;SDS011;13479;49.044;8.716;2022-09-09T17:36:14;1.35;;;0.40;;
25609;SDS011;13479;49.044;8.716;2022-09-09T17:38:41;1.42;;;0.40;;
25609;SDS011;13479;49.044;8.716;2022-09-09T17:41:15;2.75;;;0.50;;
25609;SDS011;13479;49.044;8.716;2022-09-09T17:43:42;1.83;;;0.47;;
25609;SDS011;13479;49.044;8.716;2022-09-09T17:46:18;2.22;;;0.43;;
25609;SDS011;13479;49.044;8.716;2022-09-09T17:48:46;1.60;;;0.50;;
25609;SDS011;13479;49.044;8.716;2022-09-09T17:51:13;3.05;;;0.50;;
25609;SDS011;13479;49.044;8.716;2022-09-09T17:53:43;2.08;;;0.50;;
25609;SDS011;13479;49.044;8.716;2022-09-09T17:56:12;2.55;;;0.50;;
25609;SDS011;13479;49.044;8.716;2022-09-09T17:58:39;1.10;;;0.40;;
25609;SDS011;13479;49.044;8.716;2022-09-09T18:01:06;2.53;;;0.50;;
25609;SDS011;13479;49.044;8.716;2022-09-09T18:03:34;1.48;;;0.43;;
25609;SDS011;13479;49.044;8.716;2022-09-09T18:06:01;5.65;;;0.60;;
25609;SDS011;13479;49.044;8.716;2022-09-09T18:08:28;1.33;;;0.50;;
25609;SDS011;13479;49.044;8.716;2022-09-09T18:10:53;2.47;;;0.60;;
25609;SDS011;13479;49.044;8.716;2022-09-09T18:13:19;2.25;;;0.60;;
25609;SDS011;13479;49.044;8.716;2022-09-09T18:15:45;2.22;;;0.57;;
25609;SDS011;13479;49.044;8.716;2022-09-09T18:18:10;2.10;;;0.50;;
25609;SDS011;13479;49.044;8.716;2022-09-09T18:20:36;1.25;;;0.50;;
25609;SDS011;13479;49.044;8.716;2022-09-09T18:23:01;1.13;;;0.40;;
25609;SDS011;13479;49.044;8.716;2022-09-09T18:25:26;2.90;;;0.73;;
25609;SDS011;13479;49.044;8.716;2022-09-09T18:27:52;2.75;;;0.70;;
25609;SDS011;13479;49.044;8.716;2022-09-09T18:30:18;1.95;;;0.60;;
25609;SDS011;13479;49.044;8.716;2022-09-09T18:32:44;1.50;;;0.55;;
25609;SDS011;13479;49.044;8.716;2022-09-09T18:35:09;4.13;;;0.70;;
25609;SDS011;13479;49.044;8.716;2022-09-09T18:37:34;1.80;;;0.50;;
25609;SDS011;13479;49.044;8.716;2022-09-09T18:40:02;1.70;;;0.50;;
25609;SDS011;13479;49.044;8.716;2022-09-09T18:42:27;3.53;;;0.80;;
25609;SDS011;13479;49.044;8.716;2022-09-09T18:44:54;2.10;;;0.50;;
25609;SDS011;13479;49.044;8.716;2022-09-09T18:47:19;1.70;;;0.60;;
25609;SDS011;13479;49.044;8.716;2022-09-09T18:49:45;2.63;;;0.73;;
25609;SDS011;13479;49.044;8.716;2022-09-09T18:52:11;2.05;;;0.52;;
25609;SDS011;13479;49.044;8.716;2022-09-09T18:54:37;4.68;;;0.80;;
25609;SDS011;13479;49.044;8.716;2022-09-09T18:57:02;4.57;;;0.90;;
25609;SDS011;13479;49.044;8.716;2022-09-09T18:59:28;3.05;;;0.60;;
25609;SDS011;13479;49.044;8.716;2022-09-09T19:01:54;2.17;;;0.70;;
25609;SDS011;13479;49.044;8.716;2022-09-09T19:04:20;4.07;;;0.70;;
25609;SDS011;13479;49.044;8.716;2022-09-09T19:06:47;2.60;;;0.70;;
25609;SDS011;13479;49.044;8.716;2022-09-09T19:09:16;3.00;;;0.60;;
25609;SDS011;13479;49.044;8.716;2022-09-09T19:11:42;4.30;;;0.70;;
25609;SDS011;13479;49.044;8.716;2022-09-09T19:14:10;3.83;;;0.70;;
25609;SDS011;13479;49.044;8.716;2022-09-09T19:16:37;3.85;;;0.60;;
25609;SDS011;13479;49.044;8.716;2022-09-09T19:19:05;2.17;;;0.60;;
25609;SDS011;13479;49.044;8.716;2022-09-09T19:21:35;7.55;;;0.98;;
25609;SDS011;13479;49.044;8.716;2022-09-09T19:24:06;2.58;;;0.60;;
25609;SDS011;13479;49.044;8.716;2022-09-09T19:26:41;2.25;;;0.65;;
25609;SDS011;13479;49.044;8.716;2022-09-09T19:29:10;3.42;;;0.60;;
25609;SDS011;13479;49.044;8.716;2022-09-09T19:31:41;2.25;;;1.00;;
25609;SDS011;13479;49.044;8.716;2022-09-09T19:34:08;5.25;;;0.57;;
25609;SDS011;13479;49.044;8.716;2022-09-09T19:36:33;4.13;;;1.02;;
25609;SDS011;13479;49.044;8.716;2022-09-09T19:38:59;3.28;;;0.75;;
25609;SDS011;13479;49.044;8.716;2022-09-09T19:41:26;3.72;;;0.60;;
25609;SDS011;13479;49.044;8.716;2022-09-09T19:43:54;5.05;;;0.70;;
25609;SDS011;13479;49.044;8.716;2022-09-09T19:46:24;2.17;;;0.80;;
25609;SDS011;13479;49.044;8.716;2022-09-09T19:48:50;4.25;;;1.10;;
25609;SDS011;13479;49.044;8.716;2022-09-09T19:51:17;4.15;;;0.85;;
25609;SDS011;13479;49.044;8.716;2022-09-09T19:53:46;4.50;;;0.70;;
25609;SDS011;13479;49.044;8.716;2022-09-09T19:56:13;2.70;;;0.70;;
25609;SDS011;13479;49.044;8.716;2022-09-09T19:58:39;2.33;;;0.70;;
25609;SDS011;13479;49.044;8.716;2022-09-09T20:03:30;5.70;;;1.08;;
25609;SDS011;13479;49.044;8.716;2022-09-09T20:05:57;2.22;;;0.70;;
25609;SDS011;13479;49.044;8.716;2022-09-09T20:08:22;5.60;;;0.88;;
25609;SDS011;13479;49.044;8.716;2022-09-09T20:10:50;2.55;;;0.70;;
25609;SDS011;13479;49.044;8.716;2022-09-09T20:13:16;2.17;;;0.52;;
25609;SDS011;13479;49.044;8.716;2022-09-09T20:15:42;2.78;;;0.60;;
25609;SDS011;13479;49.044;8.716;2022-09-09T20:18:07;4.45;;;0.73;;
25609;SDS011;13479;49.044;8.716;2022-09-09T20:20:32;3.17;;;0.93;;
25609;SDS011;13479;49.044;8.716;2022-09-09T20:22:58;3.00;;;0.63;;
25609;SDS011;13479;49.044;8.716;2022-09-09T20:25:23;2.97;;;0.75;;
25609;SDS011;13479;49.044;8.716;2022-09-09T20:27:48;3.55;;;0.90;;
25609;SDS011;13479;49.044;8.716;2022-09-09T20:30:14;2.85;;;0.85;;
25609;SDS011;13479;49.044;8.716;2022-09-09T20:32:39;1.98;;;0.60;;
25609;SDS011;13479;49.044;8.716;2022-09-09T20:35:04;2.50;;;0.70;;
25609;SDS011;13479;49.044;8.716;2022-09-09T20:37:29;3.05;;;0.60;;
25609;SDS011;13479;49.044;8.716;2022-09-09T20:39:55;2.95;;;0.70;;
25609;SDS011;13479;49.044;8.716;2022-09-09T20:42:21;2.08;;;0.60;;
25609;SDS011;13479;49.044;8.716;2022-09-09T20:44:47;3.67;;;0.75;;
25609;SDS011;13479;49.044;8.716;2022-09-09T20:47:12;4.32;;;0.80;;
25609;SDS011;13479;49.044;8.716;2022-09-09T20:49:38;5.35;;;0.70;;
25609;SDS011;13479;49.044;8.716;2022-09-09T20:52:03;2.55;;;0.70;;
25609;SDS011;13479;49.044;8.716;2022-09-09T20:54:28;2.85;;;0.80;;
25609;SDS011;13479;49.044;8.716;2022-09-09T20:56:57;3.20;;;1.10;;
25609;SDS011;13479;49.044;8.716;2022-09-09T20:59:27;3.10;;;1.00;;